Disclaimer

Please do not use the information listed here in-flight or in-navigation, as they are not provided to us by the airports but are provided by volunteers, so they might be outdated.

Search


Regions


Airport information page

No radio frequency information is available.

Airport informations:
Latitude: 45° 00' 07.55" N
Longitude: 037° 20' 50.18" E
Elevation: 174 feet - 53 meters
Operating hours: Remarks
Operating agency: Civil government, landing fees and diplomatic clearance may be required
Timezone: UTC+3(+4DT) - Last Sunday in March to last Sunday in October
Fuel: N/A

Runway information:
04/22 - 8202 x 138 feet< - >2500 x 42 meters

Recent METARs:
URKA 180600Z 05004MPS 9000 FEW019 M01/M01 Q1026 R04/010070 TEMPO 1000 BR SCT003 RMK QFE766/1021
URKA 180630Z 04005MPS 9999 FEW/// M00/M00 Q1026 R04/010070 TEMPO 1000 BR SCT003 RMK QFE766/1021
URKA 180700Z 03004MPS 9999 SCT011 01/00 Q1026 R04/010070 TEMPO 1000 BR SCT003 RMK QFE766/1021

Airport on the map: